Time;durP1;ratioP1;P1;durP2;ratioP2;P2;SDS_P1;SDS_P2;PMS_P1;PMS_P2;Temp;Humidity;BMP_temperature;BMP_pressure;BME280_temperature;BME280_humidity;BME280_pressure;Samples;Min_cycle;Max_cycle;Signal;HPM_P1;HPM_P2
2024/03/01 00:02:03;;;;;;;;;;;;;;;21.70;36.09;101162.66;102969;1291;62348;-79
2024/03/01 00:04:28;;;;;;;;;;;;;;;21.71;36.05;101167.85;103044;1292;63273;-78
2024/03/01 00:06:54;;;;;;;;;;;;;;;21.71;35.97;101181.65;103094;1290;70577;-79
2024/03/01 00:09:19;;;;;;;;;;;;;;;21.71;36.00;101203.11;103045;1294;63353;-79
2024/03/01 00:11:45;;;;;;;;;;;;;;;21.71;35.92;101189.30;102730;1292;62257;-80
2024/03/01 00:14:10;;;;;;;;;;;;;;;21.71;36.09;101179.65;103024;1294;62119;-81
2024/03/01 00:16:36;;;;;;;;;;;;;;;21.72;35.96;101181.22;103127;1294;62877;-78
2024/03/01 00:19:01;;;;;;;;;;;;;;;21.72;36.08;101180.84;102755;1297;62213;-79
2024/03/01 00:21:27;;;;;;;;;;;;;;;21.72;35.89;101176.69;102736;1294;62236;-79
2024/03/01 00:23:52;;;;;;;;;;;;;;;21.72;36.07;101172.06;102994;1289;63453;-79
2024/03/01 00:26:18;;;;;;;;;;;;;;;21.72;35.94;101158.41;102979;1294;62204;-77
2024/03/01 00:28:44;;;;;;;;;;;;;;;21.72;35.90;101161.27;103070;1295;62210;-79
2024/03/01 00:31:09;;;;;;;;;;;;;;;21.73;36.03;101165.34;102949;1294;72758;-80
2024/03/01 00:33:35;;;;;;;;;;;;;;;21.73;36.02;101164.27;102615;1297;62297;-78
2024/03/01 00:36:00;;;;;;;;;;;;;;;21.73;36.05;101168.93;103285;1292;62678;-77
2024/03/01 00:38:26;;;;;;;;;;;;;;;21.73;35.98;101167.30;102647;1297;62290;-81
2024/03/01 00:40:52;;;;;;;;;;;;;;;21.74;35.94;101154.91;103022;1291;62220;-79
2024/03/01 00:43:18;;;;;;;;;;;;;;;21.74;35.98;101158.66;102710;1295;72409;-79
2024/03/01 00:45:43;;;;;;;;;;;;;;;21.74;36.05;101158.81;103199;1290;63286;-80
2024/03/01 00:48:10;;;;;;;;;;;;;;;21.74;35.91;101150.22;102926;1292;62202;-78
2024/03/01 00:50:36;;;;;;;;;;;;;;;21.74;35.96;101150.73;102754;1294;62332;-82
2024/03/01 00:53:03;;;;;;;;;;;;;;;21.74;35.97;101144.83;102638;1295;62276;-79
2024/03/01 00:55:30;;;;;;;;;;;;;;;21.75;35.99;101139.41;102791;1294;62095;-77
2024/03/01 00:57:55;;;;;;;;;;;;;;;21.75;35.93;101145.17;103006;1293;62120;-80
2024/03/01 01:00:21;;;;;;;;;;;;;;;21.75;35.88;101143.90;102680;1295;62346;-79
2024/03/01 01:02:47;;;;;;;;;;;;;;;21.75;35.88;101146.56;103061;1294;63321;-80
2024/03/01 01:05:12;;;;;;;;;;;;;;;21.75;35.94;101145.66;102986;1295;62146;-78
2024/03/01 01:07:38;;;;;;;;;;;;;;;21.75;35.96;101148.90;102976;1291;75258;-79
2024/03/01 01:10:05;;;;;;;;;;;;;;;21.75;35.89;101141.73;102963;1294;62342;-78
2024/03/01 01:12:30;;;;;;;;;;;;;;;21.76;35.93;101145.63;102709;1296;62337;-78
2024/03/01 01:14:56;;;;;;;;;;;;;;;21.76;35.94;101142.23;102982;1291;62105;-77
2024/03/01 01:17:21;;;;;;;;;;;;;;;21.76;35.93;101131.66;102967;1294;62315;-78
2024/03/01 01:19:47;;;;;;;;;;;;;;;21.76;35.90;101125.55;103022;1295;62110;-81
2024/03/01 01:22:12;;;;;;;;;;;;;;;21.76;35.77;101129.52;102888;1292;62197;-78
2024/03/01 01:24:39;;;;;;;;;;;;;;;21.76;35.87;101128.77;102755;1294;62205;-81
2024/03/01 01:27:04;;;;;;;;;;;;;;;21.76;35.86;101121.59;102710;1294;63397;-80
2024/03/01 01:29:30;;;;;;;;;;;;;;;21.76;35.84;101123.02;102740;1294;63333;-80
2024/03/01 01:31:55;;;;;;;;;;;;;;;21.77;35.83;101133.91;103011;1294;63445;-79
2024/03/01 01:34:21;;;;;;;;;;;;;;;21.78;35.86;101136.39;102976;1295;62230;-80
2024/03/01 01:36:46;;;;;;;;;;;;;;;21.77;35.93;101138.58;102953;1294;62618;-79
2024/03/01 01:39:12;;;;;;;;;;;;;;;21.78;35.89;101137.11;102967;1294;63380;-79
2024/03/01 01:41:38;;;;;;;;;;;;;;;21.78;35.88;101137.64;102954;1294;62223;-81
2024/03/01 01:44:04;;;;;;;;;;;;;;;21.78;35.86;101131.91;102950;1302;62219;-79
2024/03/01 01:46:29;;;;;;;;;;;;;;;21.78;35.84;101129.03;102996;1295;63453;-81
2024/03/01 01:48:55;;;;;;;;;;;;;;;21.78;35.74;101136.54;102735;1295;62278;-78
2024/03/01 01:51:21;;;;;;;;;;;;;;;21.78;35.76;101132.41;102682;1295;72586;-80
2024/03/01 01:53:46;;;;;;;;;;;;;;;21.78;35.89;101126.70;102989;1294;62204;-80
2024/03/01 01:56:12;;;;;;;;;;;;;;;21.79;35.83;101127.36;102928;1290;62224;-80
2024/03/01 01:58:37;;;;;;;;;;;;;;;21.79;35.88;101126.48;102746;1294;62226;-78
2024/03/01 02:01:09;;;;;;;;;;;;;;;21.79;35.78;101130.05;102819;1297;63342;-79
2024/03/01 02:03:38;;;;;;;;;;;;;;;21.79;35.71;101128.23;102869;1291;72481;-79
2024/03/01 02:06:04;;;;;;;;;;;;;;;21.79;35.72;101126.25;102916;1290;75260;-79
2024/03/01 02:08:33;;;;;;;;;;;;;;;21.79;35.79;101126.95;102812;1294;63183;-80
2024/03/01 02:10:59;;;;;;;;;;;;;;;21.79;35.88;101121.23;102672;1296;63415;-78
2024/03/01 02:13:24;;;;;;;;;;;;;;;21.80;35.75;101121.37;102681;1294;62266;-78
2024/03/01 02:15:51;;;;;;;;;;;;;;;21.80;35.80;101122.80;102805;1294;62325;-82
2024/03/01 02:18:16;;;;;;;;;;;;;;;21.80;35.86;101120.46;102645;1294;62118;-80
2024/03/01 02:20:54;;;;;;;;;;;;;;;21.80;35.80;101123.52;102697;1290;62267;-79
2024/03/01 02:23:24;;;;;;;;;;;;;;;21.80;35.71;101129.40;103068;1289;71508;-81
2024/03/01 02:25:50;;;;;;;;;;;;;;;21.81;35.76;101132.23;102652;1294;76910;-78
2024/03/01 02:28:15;;;;;;;;;;;;;;;21.81;35.83;101129.91;102689;1295;62258;-81
2024/03/01 02:30:41;;;;;;;;;;;;;;;21.81;35.80;101132.05;102823;1295;62558;-78
2024/03/01 02:33:06;;;;;;;;;;;;;;;21.81;35.83;101123.78;102793;1294;63384;-81
2024/03/01 02:35:32;;;;;;;;;;;;;;;21.81;35.75;101122.71;102704;1295;62229;-79
2024/03/01 02:37:57;;;;;;;;;;;;;;;21.81;35.83;101126.83;102714;1294;76188;-79
2024/03/01 02:40:24;;;;;;;;;;;;;;;21.81;35.66;101127.35;102928;1295;62206;-79
2024/03/01 02:42:49;;;;;;;;;;;;;;;21.81;35.76;101125.20;102849;1294;62226;-79
2024/03/01 02:45:15;;;;;;;;;;;;;;;21.81;35.75;101119.48;102699;1304;62230;-81
2024/03/01 02:47:41;;;;;;;;;;;;;;;21.82;35.86;101120.71;102797;1297;62483;-79
2024/03/01 02:50:08;;;;;;;;;;;;;;;21.81;35.76;101121.61;102662;1297;62901;-78
2024/03/01 02:52:34;;;;;;;;;;;;;;;21.82;35.71;101119.25;102728;1291;62087;-79
2024/03/01 02:55:01;;;;;;;;;;;;;;;21.82;35.67;101121.39;102675;1293;62409;-81
2024/03/01 02:57:26;;;;;;;;;;;;;;;21.82;35.76;101119.77;102644;1296;62276;-80
2024/03/01 02:59:52;;;;;;;;;;;;;;;21.82;35.70;101121.02;102795;1297;63357;-79
2024/03/01 03:02:18;;;;;;;;;;;;;;;21.82;35.69;101124.96;102681;1291;62904;-81
2024/03/01 03:04:43;;;;;;;;;;;;;;;21.83;35.80;101116.16;102686;1297;62207;-79
2024/03/01 03:07:09;;;;;;;;;;;;;;;21.82;35.73;101114.91;102909;1294;69015;-79
2024/03/01 03:09:34;;;;;;;;;;;;;;;21.83;35.70;101121.71;102613;1296;73297;-80
2024/03/01 03:12:01;;;;;;;;;;;;;;;21.83;35.74;101124.94;102654;1296;62644;-80
2024/03/01 03:14:28;;;;;;;;;;;;;;;21.83;35.64;101124.00;102741;1295;62229;-79
2024/03/01 03:16:54;;;;;;;;;;;;;;;21.84;35.72;101120.02;102693;1291;63364;-78
2024/03/01 03:19:19;;;;;;;;;;;;;;;21.84;35.71;101117.68;102693;1297;62128;-78
2024/03/01 03:21:45;;;;;;;;;;;;;;;21.84;35.76;101125.19;102650;1297;62234;-80
2024/03/01 03:24:11;;;;;;;;;;;;;;;21.84;35.74;101121.79;102626;1294;63389;-79
2024/03/01 03:26:36;;;;;;;;;;;;;;;21.84;35.67;101124.85;102777;1291;62192;-79
2024/03/01 03:29:01;;;;;;;;;;;;;;;21.84;35.79;101127.16;102669;1297;62096;-80
2024/03/01 03:31:27;;;;;;;;;;;;;;;21.84;35.68;101128.05;102666;1293;62269;-79
2024/03/01 03:33:53;;;;;;;;;;;;;;;21.84;35.74;101128.20;102736;1293;62104;-79
2024/03/01 03:36:18;;;;;;;;;;;;;;;21.85;35.67;101125.49;102921;1294;62318;-81
2024/03/01 03:38:44;;;;;;;;;;;;;;;21.85;35.74;101128.38;102712;1297;63348;-79
2024/03/01 03:41:09;;;;;;;;;;;;;;;21.85;35.79;101123.71;102648;1291;62216;-80
2024/03/01 03:43:35;;;;;;;;;;;;;;;21.85;35.79;101120.66;102683;1289;63418;-78
2024/03/01 03:46:00;;;;;;;;;;;;;;;21.85;35.64;101120.27;102818;1291;63370;-79
2024/03/01 03:48:27;;;;;;;;;;;;;;;21.85;35.65;101119.20;102845;1289;62222;-81
2024/03/01 03:50:52;;;;;;;;;;;;;;;21.85;35.69;101122.61;102952;1289;62234;-79
2024/03/01 03:53:18;;;;;;;;;;;;;;;21.85;35.68;101121.87;102836;1290;63365;-80
2024/03/01 03:55:43;;;;;;;;;;;;;;;21.85;35.76;101123.11;102774;1290;62203;-80
2024/03/01 03:58:09;;;;;;;;;;;;;;;21.86;35.68;101121.27;103207;1290;62185;-78
2024/03/01 04:00:34;;;;;;;;;;;;;;;21.87;35.59;101125.37;102682;1289;62293;-80
2024/03/01 04:03:00;;;;;;;;;;;;;;;21.86;35.62;101126.27;102919;1291;63409;-79
2024/03/01 04:05:26;;;;;;;;;;;;;;;21.86;35.65;101127.72;102871;1289;62199;-81
2024/03/01 04:07:51;;;;;;;;;;;;;;;21.86;35.65;101128.09;102642;1295;71915;-80
2024/03/01 04:10:17;;;;;;;;;;;;;;;21.87;35.68;101132.34;102857;1295;62202;-77
2024/03/01 04:12:42;;;;;;;;;;;;;;;21.87;35.64;101128.77;102495;1292;658704;-78
2024/03/01 04:15:08;;;;;;;;;;;;;;;21.87;35.67;101128.77;102903;1291;62287;-81
2024/03/01 04:17:34;;;;;;;;;;;;;;;21.88;35.62;101127.77;102760;1289;62105;-79
2024/03/01 04:19:59;;;;;;;;;;;;;;;21.88;35.70;101124.76;102831;1294;72746;-79
2024/03/01 04:22:25;;;;;;;;;;;;;;;21.88;35.64;101123.48;102832;1295;63398;-79
2024/03/01 04:24:50;;;;;;;;;;;;;;;21.87;35.59;101128.17;103025;1289;62222;-79
2024/03/01 04:27:16;;;;;;;;;;;;;;;21.88;35.60;101130.30;102826;1292;62121;-80
2024/03/01 04:29:41;;;;;;;;;;;;;;;21.88;35.56;101132.42;102876;1292;62151;-81
2024/03/01 04:32:08;;;;;;;;;;;;;;;21.88;35.54;101125.47;102879;1294;71176;-79
2024/03/01 04:34:33;;;;;;;;;;;;;;;21.88;35.56;101121.53;102871;1294;62185;-79
2024/03/01 04:36:59;;;;;;;;;;;;;;;21.87;35.59;101117.11;102693;1291;62651;-79
2024/03/01 04:39:25;;;;;;;;;;;;;;;21.86;35.58;101106.77;102688;1294;62309;-81
2024/03/01 04:41:52;;;;;;;;;;;;;;;21.85;35.50;101104.48;102924;1294;63123;-80
2024/03/01 04:44:17;;;;;;;;;;;;;;;21.85;35.53;101106.16;102695;1290;63380;-79
2024/03/01 04:46:43;;;;;;;;;;;;;;;21.84;35.46;101104.94;103059;1289;62122;-80
2024/03/01 04:49:08;;;;;;;;;;;;;;;21.84;35.49;101108.36;102764;1294;62164;-81
2024/03/01 04:51:34;;;;;;;;;;;;;;;21.84;35.57;101115.73;102721;1291;62292;-80
2024/03/01 04:54:00;;;;;;;;;;;;;;;21.83;35.47;101100.55;102902;1290;62133;-79
2024/03/01 04:56:26;;;;;;;;;;;;;;;21.82;35.57;101093.95;103048;1292;62203;-79
2024/03/01 04:58:51;;;;;;;;;;;;;;;21.82;35.49;101092.70;103006;1289;63523;-81
2024/03/01 05:01:17;;;;;;;;;;;;;;;21.81;35.57;101087.02;102733;1292;62331;-79
2024/03/01 05:03:45;;;;;;;;;;;;;;;21.81;35.47;101083.09;102832;1292;62250;-79
2024/03/01 05:06:11;;;;;;;;;;;;;;;21.81;35.45;101082.22;102988;1290;73362;-80
2024/03/01 05:08:37;;;;;;;;;;;;;;;21.81;35.46;101090.30;102946;1292;62294;-79
2024/03/01 05:11:02;;;;;;;;;;;;;;;21.80;35.40;101084.42;103642;1292;62165;-80
2024/03/01 05:13:28;;;;;;;;;;;;;;;21.79;35.56;101078.20;103174;1290;62201;-80
2024/03/01 05:15:54;;;;;;;;;;;;;;;21.80;35.53;101081.79;103069;1289;62218;-79
2024/03/01 05:18:20;;;;;;;;;;;;;;;21.80;35.50;101079.47;103289;1290;62217;-78
2024/03/01 05:20:45;;;;;;;;;;;;;;;21.81;35.33;101086.55;103445;1291;75263;-78
2024/03/01 05:23:11;;;;;;;;;;;;;;;21.81;35.36;101090.10;103415;1290;63241;-79
2024/03/01 05:25:42;;;;;;;;;;;;;;;21.82;35.34;101092.38;103455;1294;62121;-80
2024/03/01 05:28:07;;;;;;;;;;;;;;;21.82;35.38;101097.02;103384;1291;71722;-80
2024/03/01 05:30:35;;;;;;;;;;;;;;;21.82;35.39;101095.92;103381;1293;62317;-80
2024/03/01 05:33:01;;;;;;;;;;;;;;;21.82;35.30;101085.91;103275;1293;60704;-79
2024/03/01 05:35:27;;;;;;;;;;;;;;;21.81;35.35;101084.38;103225;1290;62222;-79
2024/03/01 05:37:56;;;;;;;;;;;;;;;21.80;35.32;101095.39;103206;1290;62146;-80
2024/03/01 05:40:22;;;;;;;;;;;;;;;21.78;35.33;101104.11;103106;1291;75337;-80
2024/03/01 05:42:47;;;;;;;;;;;;;;;21.75;35.31;101102.48;103092;1294;63604;-79
2024/03/01 05:45:13;;;;;;;;;;;;;;;21.72;35.16;101102.01;103136;1294;62182;-80
2024/03/01 05:47:39;;;;;;;;;;;;;;;21.68;35.19;101100.70;103098;1291;62116;-79
2024/03/01 05:50:05;;;;;;;;;;;;;;;21.63;35.20;101095.84;103227;1290;62329;-79
2024/03/01 05:52:31;;;;;;;;;;;;;;;21.57;35.10;101085.09;103465;1291;62659;-81
2024/03/01 05:54:57;;;;;;;;;;;;;;;21.52;35.05;101078.80;103693;1292;62251;-82
2024/03/01 05:57:22;;;;;;;;;;;;;;;21.45;35.14;101075.69;104099;1290;62116;-81
2024/03/01 05:59:48;;;;;;;;;;;;;;;21.27;35.06;101076.90;103800;1293;62271;-82
2024/03/01 06:02:13;;;;;;;;;;;;;;;21.18;35.17;101079.11;103899;1291;62195;-80
2024/03/01 06:04:39;;;;;;;;;;;;;;;21.05;35.04;101085.40;104003;1292;62283;-81
2024/03/01 06:07:05;;;;;;;;;;;;;;;20.98;35.22;101086.95;104319;1291;60574;-81
2024/03/01 06:09:31;;;;;;;;;;;;;;;20.99;35.25;101078.83;104289;1289;62090;-79
2024/03/01 06:11:56;;;;;;;;;;;;;;;21.01;35.30;101088.73;104212;1289;62117;-80
2024/03/01 06:14:21;;;;;;;;;;;;;;;21.02;35.22;101104.18;104148;1290;62211;-81
2024/03/01 06:16:47;;;;;;;;;;;;;;;21.04;35.35;101105.45;104287;1291;61697;-80
2024/03/01 06:19:13;;;;;;;;;;;;;;;21.07;35.16;101100.48;104653;1289;62089;-80
2024/03/01 06:21:39;;;;;;;;;;;;;;;21.10;35.30;101115.43;104415;1291;63295;-80
2024/03/01 06:24:05;;;;;;;;;;;;;;;21.15;35.33;101119.64;104577;1290;60514;-81
2024/03/01 06:26:30;;;;;;;;;;;;;;;21.17;35.29;101109.83;104331;1291;62277;-80
2024/03/01 06:28:56;;;;;;;;;;;;;;;21.19;35.25;101099.84;104531;1294;62202;-78
2024/03/01 06:31:21;;;;;;;;;;;;;;;21.20;35.40;101103.55;104521;1289;62216;-79
2024/03/01 06:33:47;;;;;;;;;;;;;;;21.21;35.16;101109.00;104565;1293;60164;-78
2024/03/01 06:36:12;;;;;;;;;;;;;;;21.24;35.39;101109.35;104570;1289;60214;-79
2024/03/01 06:38:38;;;;;;;;;;;;;;;21.27;35.28;101117.36;104365;1291;75118;-77
2024/03/01 06:41:05;;;;;;;;;;;;;;;21.31;35.30;101116.23;104745;1290;62110;-79
2024/03/01 06:43:30;;;;;;;;;;;;;;;21.35;35.25;101110.05;104098;1290;62295;-79
2024/03/01 06:45:56;;;;;;;;;;;;;;;21.38;35.25;101107.14;104234;1290;62114;-81
2024/03/01 06:48:21;;;;;;;;;;;;;;;21.41;35.20;101115.36;104401;1290;62201;-81
2024/03/01 06:50:47;;;;;;;;;;;;;;;21.44;35.25;101123.77;104565;1290;62723;-80
2024/03/01 06:53:12;;;;;;;;;;;;;;;21.46;35.16;101120.02;104735;1291;62095;-80
2024/03/01 06:55:38;;;;;;;;;;;;;;;21.49;34.93;101122.35;104960;1289;60537;-81
2024/03/01 06:58:03;;;;;;;;;;;;;;;21.39;35.10;101113.05;105004;1294;62173;-81
2024/03/01 07:00:30;;;;;;;;;;;;;;;21.21;35.25;101113.11;105141;1289;62036;-81
2024/03/01 07:02:56;;;;;;;;;;;;;;;21.15;35.42;101113.19;104775;1290;62153;-79
2024/03/01 07:05:21;;;;;;;;;;;;;;;21.06;35.54;101110.34;104991;1289;60485;-79
2024/03/01 07:07:47;;;;;;;;;;;;;;;21.08;35.68;101101.45;104801;1289;60858;-81
2024/03/01 07:10:13;;;;;;;;;;;;;;;21.13;35.59;101102.95;104774;1291;62283;-80
2024/03/01 07:12:39;;;;;;;;;;;;;;;21.18;35.68;101098.45;104856;1289;62195;-80
2024/03/01 07:15:05;;;;;;;;;;;;;;;21.23;35.68;101094.36;104911;1290;62134;-80
2024/03/01 07:17:30;;;;;;;;;;;;;;;21.27;35.50;101090.70;105097;1291;60769;-80
2024/03/01 07:19:56;;;;;;;;;;;;;;;21.32;35.55;101086.47;105428;1289;59962;-81
2024/03/01 07:22:21;;;;;;;;;;;;;;;21.36;35.60;101086.00;104858;1291;60269;-80
2024/03/01 07:24:47;;;;;;;;;;;;;;;21.39;35.71;101081.30;104826;1289;75709;-80
2024/03/01 07:27:13;;;;;;;;;;;;;;;21.43;35.62;101079.27;104917;1289;62153;-79
2024/03/01 07:29:38;;;;;;;;;;;;;;;21.47;35.62;101085.63;104914;1294;62189;-80
2024/03/01 07:32:04;;;;;;;;;;;;;;;21.49;35.56;101085.45;104727;1289;62068;-79
2024/03/01 07:34:29;;;;;;;;;;;;;;;21.52;35.56;101094.91;104759;1295;61369;-80
2024/03/01 07:36:55;;;;;;;;;;;;;;;21.55;35.59;101093.35;104699;1293;74363;-81
2024/03/01 07:39:20;;;;;;;;;;;;;;;21.58;35.51;101100.30;104817;1289;62980;-79
2024/03/01 07:41:46;;;;;;;;;;;;;;;21.59;35.55;101104.83;104840;1289;61249;-80
2024/03/01 07:44:11;;;;;;;;;;;;;;;21.62;35.59;101107.55;104674;1290;62040;-79
2024/03/01 07:46:37;;;;;;;;;;;;;;;21.64;35.50;101111.18;104718;1291;61069;-80
2024/03/01 07:49:03;;;;;;;;;;;;;;;21.66;35.62;101111.20;104813;1291;76039;-80
2024/03/01 07:51:28;;;;;;;;;;;;;;;21.68;35.67;101112.32;104740;1290;62117;-79
2024/03/01 07:53:54;;;;;;;;;;;;;;;21.71;35.50;101123.02;104988;1291;62042;-80
2024/03/01 07:56:20;;;;;;;;;;;;;;;21.73;35.76;101118.07;104835;1295;59999;-79
2024/03/01 07:58:46;;;;;;;;;;;;;;;21.73;35.85;101109.08;104972;1291;62000;-80
2024/03/01 08:01:11;;;;;;;;;;;;;;;21.74;35.91;101103.48;104923;1291;60293;-80
2024/03/01 08:03:37;;;;;;;;;;;;;;;21.75;35.97;101100.50;104854;1290;60273;-79
2024/03/01 08:06:03;;;;;;;;;;;;;;;21.76;36.18;101100.66;104812;1290;62092;-79
2024/03/01 08:08:38;;;;;;;;;;;;;;;21.76;36.20;101092.05;104845;1291;60314;-80
2024/03/01 08:11:07;;;;;;;;;;;;;;;21.77;36.16;101088.23;104810;1290;75184;-80
2024/03/01 08:13:32;;;;;;;;;;;;;;;21.78;36.19;101083.16;104885;1290;61064;-80
2024/03/01 08:15:58;;;;;;;;;;;;;;;21.79;36.19;101083.95;104981;1290;62216;-81
2024/03/01 08:18:24;;;;;;;;;;;;;;;21.80;36.25;101077.42;104637;1290;62135;-79
2024/03/01 08:20:57;;;;;;;;;;;;;;;21.81;36.22;101069.65;104417;1291;62321;-79
2024/03/01 08:23:26;;;;;;;;;;;;;;;21.83;36.29;101068.66;105738;1290;61672;-78
2024/03/01 08:25:52;;;;;;;;;;;;;;;21.84;36.28;101070.39;105774;1291;60297;-79
2024/03/01 08:28:22;;;;;;;;;;;;;;;21.85;36.21;101072.83;105782;1291;72447;-80
2024/03/01 08:30:48;;;;;;;;;;;;;;;21.87;36.15;101073.77;105764;1290;75356;-79
2024/03/01 08:33:18;;;;;;;;;;;;;;;21.88;36.28;101071.16;105906;1290;60329;-79
2024/03/01 08:35:44;;;;;;;;;;;;;;;21.89;36.24;101058.34;105547;1290;60215;-79
2024/03/01 08:38:28;;;;;;;;;;;;;;;21.90;36.31;101047.86;105749;1291;60260;-78
2024/03/01 08:40:54;;;;;;;;;;;;;;;21.91;36.29;101045.13;105914;1290;74905;-78
2024/03/01 08:43:20;;;;;;;;;;;;;;;21.92;36.23;101043.95;105737;1293;60144;-78
2024/03/01 08:45:45;;;;;;;;;;;;;;;21.93;36.25;101035.70;105905;1291;60326;-78
2024/03/01 08:48:19;;;;;;;;;;;;;;;21.94;36.21;101032.03;105846;1291;59857;-79
2024/03/01 08:50:47;;;;;;;;;;;;;;;21.95;36.26;101035.94;105837;1291;74498;-77
2024/03/01 08:53:33;;;;;;;;;;;;;;;21.96;36.23;101037.80;105821;1290;60114;-80
2024/03/01 08:55:58;;;;;;;;;;;;;;;21.95;36.24;101037.33;105739;1290;60210;-79
2024/03/01 08:58:25;;;;;;;;;;;;;;;21.93;36.38;101032.98;105822;1291;60699;-79
2024/03/01 09:00:53;;;;;;;;;;;;;;;21.90;36.55;101032.52;105895;1291;60514;-80
2024/03/01 09:03:23;;;;;;;;;;;;;;;21.80;36.46;101026.55;105781;1291;60259;-80
2024/03/01 09:05:50;;;;;;;;;;;;;;;21.79;36.58;101025.05;105805;1291;60094;-79
2024/03/01 09:08:19;;;;;;;;;;;;;;;21.79;36.82;101027.38;105895;1290;61112;-80
2024/03/01 09:10:45;;;;;;;;;;;;;;;21.79;36.66;101032.72;105741;1290;77722;-80
2024/03/01 09:13:13;;;;;;;;;;;;;;;21.81;36.78;101031.38;105884;1289;59751;-79
2024/03/01 09:15:39;;;;;;;;;;;;;;;21.83;36.72;101039.64;105736;1290;60483;-80
2024/03/01 09:18:06;;;;;;;;;;;;;;;21.84;36.77;101038.10;105850;1291;60412;-81
2024/03/01 09:20:39;;;;;;;;;;;;;;;21.86;36.68;101044.42;105738;1292;60068;-80
2024/03/01 09:23:05;;;;;;;;;;;;;;;21.89;36.67;101046.02;105906;1290;59996;-80
2024/03/01 09:25:33;;;;;;;;;;;;;;;21.90;36.76;101044.50;105750;1291;59968;-80
2024/03/01 09:27:59;;;;;;;;;;;;;;;21.92;36.68;101041.51;105923;1291;73137;-79
2024/03/01 09:30:25;;;;;;;;;;;;;;;21.94;36.74;101039.77;105901;1290;60175;-82
2024/03/01 09:32:50;;;;;;;;;;;;;;;21.95;36.84;101041.83;105831;1291;60876;-81
2024/03/01 09:35:15;;;;;;;;;;;;;;;21.96;36.73;101053.38;105724;1291;60302;-82
2024/03/01 09:37:41;;;;;;;;;;;;;;;21.98;36.74;101055.77;105727;1291;60257;-82
2024/03/01 09:40:26;;;;;;;;;;;;;;;21.98;36.62;101048.06;105824;1290;72573;-81
2024/03/01 09:42:53;;;;;;;;;;;;;;;21.99;36.64;101041.54;105800;1292;76234;-81
2024/03/01 09:45:32;;;;;;;;;;;;;;;21.99;36.64;101044.75;105678;1291;59884;-81
2024/03/01 09:48:16;;;;;;;;;;;;;;;21.99;36.71;101050.66;105733;1291;61103;-80
2024/03/01 09:50:57;;;;;;;;;;;;;;;21.99;36.53;101052.98;105785;1293;72619;-82
2024/03/01 09:53:29;;;;;;;;;;;;;;;21.94;36.35;101048.17;105389;1291;76856;-81
2024/03/01 09:56:15;;;;;;;;;;;;;;;21.78;36.32;101048.91;105640;1291;60280;-82
2024/03/01 09:59:07;;;;;;;;;;;;;;;21.63;36.50;101048.05;105714;1291;60373;-80
2024/03/01 10:01:36;;;;;;;;;;;;;;;21.34;36.40;101054.45;105812;1290;72416;-80
2024/03/01 10:04:20;;;;;;;;;;;;;;;21.10;36.58;101061.97;105652;1290;75598;-80
2024/03/01 10:06:52;;;;;;;;;;;;;;;20.97;36.76;101060.88;105745;1291;60415;-80
2024/03/01 10:09:17;;;;;;;;;;;;;;;20.50;36.27;101061.02;105675;1291;60070;-83
2024/03/01 10:12:01;;;;;;;;;;;;;;;20.20;36.67;101060.27;105717;1291;60518;-80
2024/03/01 10:14:36;;;;;;;;;;;;;;;20.17;36.98;101060.64;105688;1290;76207;-80
2024/03/01 10:17:23;;;;;;;;;;;;;;;;;;;;;
2024/03/01 10:20:06;;;;;;;;;;;;;;;20.40;37.48;101052.36;105865;1290;60325;-80
2024/03/01 10:22:46;;;;;;;;;;;;;;;20.55;37.61;101051.37;105772;1290;73581;-80
2024/03/01 10:25:22;;;;;;;;;;;;;;;20.65;37.39;101044.68;105862;1291;75437;-81
2024/03/01 10:27:49;;;;;;;;;;;;;;;20.74;37.56;101044.44;105836;1290;60428;-81
2024/03/01 10:30:19;;;;;;;;;;;;;;;20.86;37.43;101041.16;105731;1291;60933;-84
2024/03/01 10:33:10;;;;;;;;;;;;;;;20.96;37.41;101041.61;105779;1290;71611;-80
2024/03/01 10:35:54;;;;;;;;;;;;;;;21.03;37.47;101034.51;105799;1290;75373;-80
2024/03/01 10:38:20;;;;;;;;;;;;;;;21.12;37.34;101025.35;105814;1290;60417;-81
2024/03/01 10:40:55;;;;;;;;;;;;;;;21.18;37.39;101034.01;105776;1290;60700;-81
2024/03/01 10:43:27;;;;;;;;;;;;;;;21.26;37.29;101034.39;105880;1289;73791;-80
2024/03/01 10:46:19;;;;;;;;;;;;;;;21.30;37.43;101024.81;105401;1288;75625;-79
2024/03/01 10:49:05;;;;;;;;;;;;;;;21.31;37.28;101026.40;105601;1291;60576;-79
2024/03/01 10:51:32;;;;;;;;;;;;;;;21.25;37.05;101025.10;105885;1291;60467;-82
2024/03/01 10:53:57;;;;;;;;;;;;;;;21.25;37.07;101021.36;105775;1291;59965;-83
2024/03/01 10:56:23;;;;;;;;;;;;;;;21.28;37.06;101014.57;105846;1289;60643;-80
2024/03/01 10:58:55;;;;;;;;;;;;;;;21.32;37.09;101003.06;106006;1291;60115;-80
2024/03/01 11:01:42;;;;;;;;;;;;;;;21.29;36.88;101001.42;104674;1288;61488;-80
2024/03/01 11:04:14;;;;;;;;;;;;;;;21.18;36.77;100993.77;105108;1289;72382;-83
2024/03/01 11:06:58;;;;;;;;;;;;;;;20.86;36.73;100987.13;104844;1289;75229;-82
2024/03/01 11:09:27;;;;;;;;;;;;;;;20.72;36.65;100990.40;104902;1289;62085;-81
2024/03/01 11:11:59;;;;;;;;;;;;;;;20.50;36.65;100996.14;104667;1290;61128;-82
2024/03/01 11:14:25;;;;;;;;;;;;;;;20.39;36.66;100991.14;104999;1289;72814;-80
2024/03/01 11:16:51;;;;;;;;;;;;;;;20.35;36.68;101000.55;104537;1294;62226;-80
2024/03/01 11:19:18;;;;;;;;;;;;;;;20.33;36.67;100999.55;104589;1290;62180;-80
2024/03/01 11:21:47;;;;;;;;;;;;;;;20.33;36.81;100992.55;104664;1289;60026;-80
2024/03/01 11:24:18;;;;;;;;;;;;;;;20.41;36.90;100999.23;105986;1291;72444;-81
2024/03/01 11:26:44;;;;;;;;;;;;;;;20.45;36.62;101007.53;106126;1288;75270;-81
2024/03/01 11:29:28;;;;;;;;;;;;;;;20.36;36.56;101009.55;105423;1291;60494;-80
2024/03/01 11:31:54;;;;;;;;;;;;;;;20.28;36.72;101001.88;104245;1290;62168;-80
2024/03/01 11:34:34;;;;;;;;;;;;;;;20.35;36.57;101001.04;104480;1289;72486;-81
2024/03/01 11:37:29;;;;;;;;;;;;;;;20.41;36.56;100995.80;104248;1294;75364;-80
2024/03/01 11:40:01;;;;;;;;;;;;;;;20.49;36.46;100990.48;104073;1296;62170;-79
2024/03/01 11:42:43;;;;;;;;;;;;;;;20.50;36.58;100992.35;104553;1290;62668;-81
2024/03/01 11:45:42;;;;;;;;;;;;;;;20.57;36.73;100983.66;105769;1290;73396;-80
2024/03/01 11:48:28;;;;;;;;;;;;;;;20.66;36.85;100978.79;104337;1289;77842;-82
2024/03/01 11:51:00;;;;;;;;;;;;;;;20.76;36.94;100976.59;104418;1294;62259;-81
2024/03/01 11:53:36;;;;;;;;;;;;;;;20.82;36.72;100974.19;104231;1294;62034;-81
2024/03/01 11:56:05;;;;;;;;;;;;;;;20.88;36.90;100969.13;104522;1297;72374;-80
2024/03/01 11:58:31;;;;;;;;;;;;;;;20.92;36.67;100973.89;104326;1294;75211;-83
2024/03/01 12:00:56;;;;;;;;;;;;;;;20.86;36.55;100968.41;104783;1294;62167;-81
2024/03/01 12:03:25;;;;;;;;;;;;;;;20.79;36.72;100961.52;104997;1294;61917;-81
2024/03/01 12:05:57;;;;;;;;;;;;;;;20.77;36.50;100946.62;104819;1294;60091;-82
2024/03/01 12:08:38;;;;;;;;;;;;;;;20.49;36.18;100928.98;104935;1294;75085;-81
2024/03/01 12:11:07;;;;;;;;;;;;;;;20.20;36.40;100926.79;105122;1294;60775;-80
2024/03/01 12:13:34;;;;;;;;;;;;;;;20.05;36.66;100933.48;104860;1295;61740;-79
2024/03/01 12:16:10;;;;;;;;;;;;;;;20.12;36.77;100930.67;104889;1294;72864;-80
2024/03/01 12:18:54;;;;;;;;;;;;;;;20.17;36.65;100925.00;104972;1294;75517;-80
2024/03/01 12:21:38;;;;;;;;;;;;;;;19.79;36.40;100915.81;104733;1294;62097;-81
2024/03/01 12:24:15;;;;;;;;;;;;;;;19.77;36.58;100913.94;104930;1294;62201;-80
2024/03/01 12:26:51;;;;;;;;;;;;;;;19.89;36.71;100909.66;104776;1293;73573;-80
2024/03/01 12:29:23;;;;;;;;;;;;;;;20.02;36.69;100905.59;104990;1291;76255;-81
2024/03/01 12:32:18;;;;;;;;;;;;;;;20.04;36.43;100897.04;104969;1289;63536;-80
2024/03/01 12:34:52;;;;;;;;;;;;;;;19.92;36.37;100897.65;104089;1296;62172;-78